Time;durP1;ratioP1;P1;durP2;ratioP2;P2;SDS_P1;SDS_P2;PMS_P1;PMS_P2;Temp;Humidity;BMP_temperature;BMP_pressure;BME280_temperature;BME280_humidity;BME280_pressure;Samples;Min_cycle;Max_cycle;Signal;HPM_P1;HPM_P2
2023/02/07 00:01:13;;;;;;;5.20;3.45;;;-0.90;99.90;;;;;;5069188;28;20089;-55
2023/02/07 00:03:39;;;;;;;6.25;4.20;;;-0.90;99.90;;;;;;5073452;28;20468;-58
2023/02/07 00:06:20;;;;;;;6.65;4.20;;;-0.80;99.90;;;;;;5074000;28;20197;-58
2023/02/07 00:08:46;;;;;;;5.85;3.95;;;-0.90;99.90;;;;;;5071857;28;20039;-57
2023/02/07 00:11:18;;;;;;;7.65;3.90;;;-0.80;99.90;;;;;;5072616;28;20082;-59
2023/02/07 00:13:46;;;;;;;5.35;3.97;;;-0.80;99.90;;;;;;5075617;28;20046;-58
2023/02/07 00:16:13;;;;;;;5.93;3.90;;;-0.70;99.90;;;;;;5078703;28;20573;-57
2023/02/07 00:18:39;;;;;;;7.10;4.20;;;-0.80;99.90;;;;;;5062988;28;21566;-55
2023/02/07 00:21:07;;;;;;;6.60;4.35;;;-0.80;99.90;;;;;;5063081;28;20067;-58
2023/02/07 00:23:34;;;;;;;4.57;3.35;;;-0.80;99.90;;;;;;5058216;28;20032;-56
2023/02/07 00:26:01;;;;;;;6.32;4.18;;;-0.70;99.90;;;;;;5057856;28;20432;-57
2023/02/07 00:28:26;;;;;;;6.65;4.00;;;-0.80;99.90;;;;;;5057226;28;20068;-57
2023/02/07 00:31:11;;;;;;;5.53;3.70;;;-0.80;99.90;;;;;;5058745;28;20122;-59
2023/02/07 00:33:39;;;;;;;7.00;3.83;;;-0.80;99.90;;;;;;5061162;28;20127;-54
2023/02/07 00:36:07;;;;;;;7.20;4.55;;;-0.80;99.90;;;;;;5060073;28;20063;-58
2023/02/07 00:38:34;;;;;;;6.57;4.00;;;-0.70;99.90;;;;;;5060673;28;20066;-56
2023/02/07 00:41:02;;;;;;;7.85;4.30;;;-0.60;99.90;;;;;;5063933;28;20993;-56
2023/02/07 00:43:30;;;;;;;7.10;4.47;;;-0.70;99.90;;;;;;5062001;28;20152;-58
2023/02/07 00:46:00;;;;;;;7.95;4.20;;;-0.80;99.90;;;;;;5062430;28;20599;-55
2023/02/07 00:48:27;;;;;;;6.85;4.20;;;-0.70;99.90;;;;;;5075278;28;20503;-55
2023/02/07 00:50:53;;;;;;;7.03;4.03;;;-0.70;99.90;;;;;;5063469;28;20036;-58
2023/02/07 00:53:19;;;;;;;7.18;4.20;;;-0.70;99.90;;;;;;5063036;28;20460;-58
2023/02/07 00:55:45;;;;;;;6.65;4.38;;;-0.60;99.90;;;;;;5064021;28;20059;-55
2023/02/07 00:58:10;;;;;;;5.35;3.55;;;-0.60;99.90;;;;;;5061452;28;20029;-58
2023/02/07 01:00:36;;;;;;;5.10;3.53;;;-0.70;99.90;;;;;;5060484;28;20044;-56
2023/02/07 01:03:01;;;;;;;8.05;4.60;;;-0.70;99.90;;;;;;5058128;28;20044;-51
2023/02/07 01:05:27;;;;;;;6.60;4.22;;;-0.60;99.90;;;;;;5059015;28;20059;-56
2023/02/07 01:07:53;;;;;;;8.38;4.55;;;-0.60;99.90;;;;;;5061406;28;20032;-60
2023/02/07 01:10:19;;;;;;;7.57;4.80;;;-0.60;99.90;;;;;;5064811;28;20078;-57
2023/02/07 01:12:45;;;;;;;5.93;4.00;;;-0.70;99.90;;;;;;5061749;28;20044;-55
2023/02/07 01:15:11;;;;;;;8.43;4.20;;;-0.70;99.90;;;;;;5064553;28;20554;-59
2023/02/07 01:17:36;;;;;;;7.20;4.70;;;-0.70;99.90;;;;;;5060540;28;20067;-54
2023/02/07 01:20:03;;;;;;;6.00;3.92;;;-0.60;99.90;;;;;;5063131;28;20040;-54
2023/02/07 01:22:29;;;;;;;5.85;3.80;;;-0.60;99.90;;;;;;5061922;28;20098;-59
2023/02/07 01:24:55;;;;;;;11.20;4.32;;;-0.60;99.90;;;;;;5061780;28;20032;-59
2023/02/07 01:27:22;;;;;;;5.53;4.07;;;-0.60;99.90;;;;;;5061284;28;20083;-57
2023/02/07 01:29:48;;;;;;;5.75;3.50;;;-0.60;99.90;;;;;;5061534;28;20069;-54
2023/02/07 01:32:13;;;;;;;6.53;3.58;;;-0.60;99.90;;;;;;5057906;28;20094;-56
2023/02/07 01:34:39;;;;;;;6.72;3.85;;;-0.70;99.90;;;;;;5063415;28;20121;-59
2023/02/07 01:37:05;;;;;;;6.60;3.67;;;-0.70;99.90;;;;;;5061658;28;20123;-60
2023/02/07 01:39:31;;;;;;;5.38;3.22;;;-0.70;99.90;;;;;;5061673;28;20648;-58
2023/02/07 01:41:56;;;;;;;6.18;3.22;;;-0.70;99.90;;;;;;5060578;28;20976;-56
2023/02/07 01:44:22;;;;;;;3.97;2.80;;;-0.70;99.90;;;;;;5060857;28;20075;-55
2023/02/07 01:46:49;;;;;;;4.95;3.28;;;-0.70;99.90;;;;;;5059587;28;20041;-59
2023/02/07 01:49:19;;;;;;;7.10;3.88;;;-0.70;99.90;;;;;;5059808;28;20568;-58
2023/02/07 01:51:55;;;;;;;5.65;3.22;;;-0.70;99.90;;;;;;5058759;28;20932;-58
2023/02/07 01:54:21;;;;;;;4.57;3.15;;;-0.70;99.90;;;;;;5058924;28;20520;-57
2023/02/07 01:56:52;;;;;;;5.38;3.35;;;-0.80;99.90;;;;;;5056926;28;20041;-55
2023/02/07 01:59:19;;;;;;;5.82;3.22;;;-0.80;99.90;;;;;;5057201;28;20062;-58
2023/02/07 02:01:45;;;;;;;6.88;3.58;;;-0.80;99.90;;;;;;5059534;28;20033;-53
2023/02/07 02:04:11;;;;;;;4.68;2.97;;;-0.90;99.90;;;;;;5060819;28;20036;-58
2023/02/07 02:06:39;;;;;;;3.80;2.72;;;-0.90;99.90;;;;;;5059121;28;20059;-56
2023/02/07 02:09:09;;;;;;;4.30;2.97;;;-1.00;99.90;;;;;;5060724;28;20039;-51
2023/02/07 02:12:13;;;;;;;5.10;2.90;;;-0.90;99.90;;;;;;5061844;28;20041;-59
2023/02/07 02:15:18;;;;;;;6.47;3.67;;;-1.00;99.90;;;;;;5060688;28;20040;-52
2023/02/07 02:18:32;;;;;;;3.75;2.60;;;-1.00;99.90;;;;;;5057116;28;20131;-58
2023/02/07 02:21:28;;;;;;;3.70;2.70;;;-1.10;99.90;;;;;;5021902;28;20523;-55
2023/02/07 02:24:32;;;;;;;5.80;3.50;;;-1.10;99.90;;;;;;5060578;28;20615;-54
2023/02/07 02:27:21;;;;;;;5.20;3.40;;;-1.20;99.90;;;;;;5070732;28;20671;-50
2023/02/07 02:30:02;;;;;;;7.05;3.80;;;-1.20;99.90;;;;;;5059899;28;20078;-52
2023/02/07 02:32:39;;;;;;;5.85;3.80;;;-1.20;99.90;;;;;;5058040;28;20043;-55
2023/02/07 02:35:38;;;;;;;6.28;3.38;;;-1.30;99.90;;;;;;5061269;28;20072;-52
2023/02/07 02:38:13;;;;;;;5.35;3.53;;;-1.30;99.90;;;;;;5022017;28;20060;-56
2023/02/07 02:40:51;;;;;;;5.38;3.50;;;-1.30;99.90;;;;;;5059239;28;20052;-55
2023/02/07 02:43:44;;;;;;;6.13;3.65;;;-1.30;99.90;;;;;;5059033;28;20377;-55
2023/02/07 02:46:25;;;;;;;6.47;3.63;;;-1.40;99.90;;;;;;5060722;28;20047;-58
2023/02/07 02:48:52;;;;;;;6.25;3.67;;;-1.40;99.90;;;;;;5059035;28;20352;-54
2023/02/07 02:51:17;;;;;;;6.07;3.63;;;-1.30;99.90;;;;;;5057606;28;20079;-55
2023/02/07 02:53:57;;;;;;;5.22;3.33;;;-1.40;99.90;;;;;;5059465;28;20186;-56
2023/02/07 02:57:04;;;;;;;5.88;3.88;;;-1.40;99.90;;;;;;5059717;28;20048;-59
2023/02/07 02:59:50;;;;;;;6.88;3.67;;;-1.40;99.90;;;;;;5038714;28;20083;-56
2023/02/07 03:02:48;;;;;;;5.33;3.70;;;-1.50;99.90;;;;;;5058578;28;20079;-54
2023/02/07 03:05:33;;;;;;;4.80;3.15;;;-1.50;99.90;;;;;;5059784;28;20044;-56
2023/02/07 03:08:12;;;;;;;6.22;3.50;;;-1.50;99.90;;;;;;5057480;28;20120;-55
2023/02/07 03:10:57;;;;;;;13.52;4.25;;;-1.50;99.90;;;;;;5058457;28;20044;-55
2023/02/07 03:13:30;;;;;;;6.13;4.13;;;-1.60;99.90;;;;;;5059319;28;20067;-57
2023/02/07 03:16:20;;;;;;;7.03;4.40;;;-1.60;99.90;;;;;;5058348;28;20048;-57
2023/02/07 03:19:14;;;;;;;7.93;4.40;;;-1.60;99.90;;;;;;5058752;28;20036;-57
2023/02/07 03:21:44;;;;;;;9.30;4.22;;;-1.60;99.90;;;;;;5057167;28;20032;-55
2023/02/07 03:24:24;;;;;;;6.18;4.32;;;-1.60;99.90;;;;;;5062211;28;20532;-54
2023/02/07 03:26:53;;;;;;;5.78;3.97;;;-1.60;99.90;;;;;;5058054;28;20737;-54
2023/02/07 03:29:21;;;;;;;7.72;4.40;;;-1.60;99.90;;;;;;5060868;28;20496;-57
2023/02/07 03:31:50;;;;;;;7.68;4.50;;;-1.60;99.90;;;;;;5059880;28;20040;-58
2023/02/07 03:34:21;;;;;;;8.00;4.97;;;-1.70;99.90;;;;;;5060287;28;20064;-58
2023/02/07 03:36:55;;;;;;;6.15;4.20;;;-1.70;99.90;;;;;;5056916;28;20049;-59
2023/02/07 03:39:21;;;;;;;4.90;3.55;;;-1.70;99.90;;;;;;5057933;28;20101;-57
2023/02/07 03:41:56;;;;;;;6.63;4.47;;;-1.70;99.90;;;;;;5061192;28;20036;-55
2023/02/07 03:44:25;;;;;;;5.57;4.00;;;-1.70;99.90;;;;;;5058141;28;20062;-56
2023/02/07 03:46:51;;;;;;;6.68;4.07;;;-1.70;99.90;;;;;;5057913;28;20483;-57
2023/02/07 03:49:17;;;;;;;6.82;4.43;;;-1.70;99.90;;;;;;5057401;28;20131;-56
2023/02/07 03:51:46;;;;;;;7.20;4.68;;;-1.70;99.90;;;;;;5060944;28;20040;-55
2023/02/07 03:54:13;;;;;;;7.97;4.50;;;-1.70;99.90;;;;;;5064031;28;20067;-56
2023/02/07 03:56:38;;;;;;;6.30;3.83;;;-1.70;99.90;;;;;;5066056;28;20542;-58
2023/02/07 03:59:04;;;;;;;6.30;4.30;;;-1.70;99.90;;;;;;5066750;28;20040;-53
2023/02/07 04:01:30;;;;;;;7.07;4.00;;;-1.80;99.90;;;;;;5063185;28;20052;-57
2023/02/07 04:03:56;;;;;;;7.78;4.30;;;-1.80;99.90;;;;;;5064114;28;20040;-57
2023/02/07 04:06:22;;;;;;;7.63;4.45;;;-1.80;99.90;;;;;;5061724;28;20137;-57
2023/02/07 04:08:47;;;;;;;8.48;4.93;;;-1.80;99.90;;;;;;5062968;28;20044;-55
2023/02/07 04:11:13;;;;;;;8.27;5.07;;;-1.80;99.90;;;;;;5063992;28;20137;-58
2023/02/07 04:13:39;;;;;;;7.82;4.88;;;-1.80;99.90;;;;;;5065363;28;20105;-58
2023/02/07 04:16:05;;;;;;;8.95;4.63;;;-1.90;99.90;;;;;;5062027;28;20036;-55
2023/02/07 04:18:31;;;;;;;7.43;4.88;;;-1.90;99.90;;;;;;5061140;28;20566;-57
2023/02/07 04:21:05;;;;;;;8.10;5.05;;;-1.90;99.90;;;;;;5063269;28;20033;-60
2023/02/07 04:23:32;;;;;;;7.72;4.95;;;-1.90;99.90;;;;;;5059707;28;20040;-57
2023/02/07 04:25:58;;;;;;;7.72;4.75;;;-1.90;99.90;;;;;;5065035;28;20033;-58
2023/02/07 04:28:24;;;;;;;7.03;4.60;;;-2.00;99.90;;;;;;5056965;28;20041;-57
2023/02/07 04:30:49;;;;;;;8.98;5.25;;;-2.00;99.90;;;;;;5060945;28;20044;-55
2023/02/07 04:33:15;;;;;;;11.43;5.35;;;-2.00;99.90;;;;;;5063252;28;20074;-56
2023/02/07 04:35:41;;;;;;;8.98;5.35;;;-2.00;99.90;;;;;;5063969;28;20033;-57
2023/02/07 04:38:07;;;;;;;8.07;4.93;;;-2.00;99.90;;;;;;5060711;28;20178;-55
2023/02/07 04:40:32;;;;;;;8.85;5.38;;;-2.00;99.90;;;;;;5064353;28;20036;-54
2023/02/07 04:42:58;;;;;;;10.18;5.38;;;-2.00;99.90;;;;;;5061772;28;20473;-56
2023/02/07 04:45:23;;;;;;;7.47;4.93;;;-2.10;99.90;;;;;;5062529;28;20460;-58
2023/02/07 04:47:49;;;;;;;8.82;5.15;;;-2.10;99.90;;;;;;5059421;28;20146;-57
2023/02/07 04:50:15;;;;;;;8.57;5.32;;;-2.10;99.90;;;;;;5061294;28;20079;-56
2023/02/07 04:52:40;;;;;;;7.80;4.60;;;-2.20;99.90;;;;;;5062281;28;20504;-57
2023/02/07 04:55:07;;;;;;;9.95;5.43;;;-2.20;99.90;;;;;;5065287;28;20025;-57
2023/02/07 04:57:33;;;;;;;8.15;4.78;;;-2.20;99.90;;;;;;5060261;28;20048;-58
2023/02/07 04:59:59;;;;;;;8.02;5.53;;;-2.30;99.90;;;;;;5062538;28;20032;-57
2023/02/07 05:02:25;;;;;;;9.32;5.60;;;-2.30;99.90;;;;;;5062031;28;20032;-59
2023/02/07 05:04:50;;;;;;;9.07;5.55;;;-2.40;99.90;;;;;;5062897;28;20044;-56
2023/02/07 05:07:16;;;;;;;9.80;6.00;;;-2.30;99.90;;;;;;5057346;28;20044;-57
2023/02/07 05:09:42;;;;;;;8.27;5.22;;;-2.40;99.90;;;;;;5061188;28;20040;-54
2023/02/07 05:12:07;;;;;;;10.02;5.88;;;-2.40;99.90;;;;;;5063057;28;20060;-55
2023/02/07 05:14:33;;;;;;;9.00;5.38;;;-2.40;99.90;;;;;;5061269;28;20028;-56
2023/02/07 05:16:59;;;;;;;9.35;5.63;;;-2.40;99.90;;;;;;5058598;28;20067;-54
2023/02/07 05:19:24;;;;;;;9.43;5.93;;;-2.50;99.90;;;;;;5059456;28;20036;-54
2023/02/07 05:21:50;;;;;;;8.73;5.82;;;-2.50;99.90;;;;;;5061687;28;20104;-55
2023/02/07 05:24:16;;;;;;;9.07;5.30;;;-2.60;99.90;;;;;;5063124;28;20036;-54
2023/02/07 05:26:41;;;;;;;11.77;6.63;;;-2.50;99.90;;;;;;5060975;28;20467;-55
2023/02/07 05:29:07;;;;;;;10.25;6.32;;;-2.60;99.90;;;;;;5061062;28;20099;-56
2023/02/07 05:34:17;;;;;;;8.73;5.45;;;-2.60;99.90;;;;;;5062110;28;20036;-57
2023/02/07 05:36:42;;;;;;;7.40;5.03;;;-2.60;99.90;;;;;;5061748;28;20157;-53
2023/02/07 05:39:08;;;;;;;9.52;5.60;;;-2.60;99.90;;;;;;5056582;28;20420;-53
2023/02/07 05:41:33;;;;;;;11.70;6.18;;;-2.60;99.90;;;;;;5057206;28;20384;-54
2023/02/07 05:43:59;;;;;;;10.60;6.18;;;-2.70;99.90;;;;;;5060391;28;20036;-54
2023/02/07 05:46:25;;;;;;;10.95;6.53;;;-2.80;99.90;;;;;;5059136;28;20059;-55
2023/02/07 05:48:50;;;;;;;10.90;5.93;;;-2.90;99.90;;;;;;5059590;28;20071;-54
2023/02/07 05:51:16;;;;;;;8.45;5.60;;;-2.90;99.90;;;;;;5059829;28;20507;-53
2023/02/07 05:53:41;;;;;;;10.85;6.65;;;-2.90;99.90;;;;;;5063686;28;20047;-52
2023/02/07 05:56:07;;;;;;;12.23;6.70;;;-2.90;99.90;;;;;;5061980;28;20063;-55
2023/02/07 05:58:32;;;;;;;12.93;6.78;;;-2.90;99.90;;;;;;5057776;28;20044;-57
2023/02/07 06:00:58;;;;;;;11.95;6.57;;;-2.90;99.90;;;;;;5060806;28;20117;-56
2023/02/07 06:03:24;;;;;;;10.43;5.93;;;-3.00;99.90;;;;;;5059842;28;20040;-56
2023/02/07 06:05:49;;;;;;;10.82;6.20;;;-3.00;99.90;;;;;;5061773;28;20044;-57
2023/02/07 06:08:15;;;;;;;11.27;6.75;;;-3.00;99.90;;;;;;5059533;28;20044;-56
2023/02/07 06:10:40;;;;;;;13.00;6.10;;;-3.00;99.90;;;;;;5060773;28;20043;-58
2023/02/07 06:13:06;;;;;;;13.75;7.03;;;-3.00;99.90;;;;;;5061419;28;20123;-53
2023/02/07 06:15:32;;;;;;;11.05;6.55;;;-3.00;99.90;;;;;;5057189;28;20162;-51
2023/02/07 06:17:57;;;;;;;12.75;6.82;;;-3.10;99.90;;;;;;5057428;28;20037;-56
2023/02/07 06:20:23;;;;;;;11.88;6.45;;;-3.20;99.90;;;;;;5059136;28;20492;-52
2023/02/07 06:22:48;;;;;;;11.13;6.25;;;-3.20;99.90;;;;;;5057654;28;20036;-59
2023/02/07 06:25:14;;;;;;;10.48;6.68;;;-3.20;99.90;;;;;;5060344;28;20033;-56
2023/02/07 06:27:40;;;;;;;13.07;6.68;;;-3.10;99.90;;;;;;5054304;28;20677;-56
2023/02/07 06:30:08;;;;;;;13.55;7.07;;;-3.20;99.90;;;;;;5060671;28;20039;-56
2023/02/07 06:32:33;;;;;;;12.10;6.20;;;-3.20;99.90;;;;;;5058799;28;20043;-54
2023/02/07 06:34:59;;;;;;;12.27;6.60;;;-3.20;99.90;;;;;;5059518;28;20040;-56
2023/02/07 06:37:25;;;;;;;11.07;7.35;;;-3.20;99.90;;;;;;5057898;28;20044;-59
2023/02/07 06:39:50;;;;;;;12.85;6.53;;;-3.20;99.90;;;;;;5058123;28;20021;-50
2023/02/07 06:42:16;;;;;;;11.55;6.50;;;-3.20;99.90;;;;;;5059366;28;20032;-56
2023/02/07 06:44:42;;;;;;;11.95;6.85;;;-3.20;99.90;;;;;;5059119;28;20047;-53
2023/02/07 06:47:07;;;;;;;11.23;6.80;;;-3.20;99.90;;;;;;5055426;28;20036;-57
2023/02/07 06:49:33;;;;;;;13.90;7.35;;;-3.20;99.90;;;;;;5056953;28;20472;-57
2023/02/07 06:51:58;;;;;;;12.50;6.93;;;-3.20;99.90;;;;;;5057940;28;20031;-57
2023/02/07 06:54:24;;;;;;;14.20;7.90;;;-3.30;99.90;;;;;;5061335;28;20040;-59
2023/02/07 06:56:50;;;;;;;14.10;8.40;;;-3.30;99.90;;;;;;5060240;28;20131;-58
2023/02/07 06:59:16;;;;;;;16.10;8.73;;;-3.30;99.90;;;;;;5055207;28;20036;-55
2023/02/07 07:01:41;;;;;;;17.58;7.95;;;-3.20;99.90;;;;;;5058989;28;20040;-58
2023/02/07 07:04:07;;;;;;;15.35;8.00;;;-3.20;99.90;;;;;;5041457;28;20119;-54
2023/02/07 07:06:33;;;;;;;13.48;8.20;;;-3.30;99.90;;;;;;5055354;28;20579;-58
2023/02/07 07:08:58;;;;;;;15.20;9.20;;;-3.30;99.90;;;;;;5054823;28;20565;-61
2023/02/07 07:11:24;;;;;;;15.85;9.50;;;-3.30;99.90;;;;;;5058432;28;20041;-57
2023/02/07 07:13:50;;;;;;;19.35;8.60;;;-3.30;99.90;;;;;;5061105;28;20067;-52
2023/02/07 07:16:15;;;;;;;18.00;8.68;;;-3.30;99.90;;;;;;5056878;28;20124;-51
2023/02/07 07:18:41;;;;;;;16.27;9.02;;;-3.30;99.90;;;;;;5059330;28;20411;-58
2023/02/07 07:21:08;;;;;;;30.23;11.68;;;-3.20;99.90;;;;;;5057217;28;20610;-58
2023/02/07 07:23:34;;;;;;;24.58;12.07;;;-3.30;99.90;;;;;;5060881;28;20040;-56
2023/02/07 07:25:59;;;;;;;23.92;11.55;;;-3.30;99.90;;;;;;5062513;28;20036;-53
2023/02/07 07:28:25;;;;;;;25.55;11.55;;;-3.30;99.90;;;;;;5061531;28;20044;-56
2023/02/07 07:30:50;;;;;;;73.82;25.73;;;-3.20;99.90;;;;;;5064947;28;20043;-51
2023/02/07 07:33:16;;;;;;;146.18;41.15;;;-3.10;99.90;;;;;;5067309;28;20055;-53
2023/02/07 07:35:42;;;;;;;64.00;20.30;;;-3.10;99.90;;;;;;5063516;28;20040;-58
2023/02/07 07:38:07;;;;;;;95.38;31.20;;;-3.10;99.90;;;;;;5062045;28;21227;-56
2023/02/07 07:40:33;;;;;;;41.33;16.25;;;-3.10;99.90;;;;;;5066061;28;20029;-57
2023/02/07 07:42:59;;;;;;;39.78;16.98;;;-3.00;99.90;;;;;;5064501;28;20037;-57
2023/02/07 07:45:24;;;;;;;26.65;13.50;;;-2.90;99.90;;;;;;5064580;28;20051;-54
2023/02/07 07:47:50;;;;;;;26.70;12.43;;;-3.00;99.90;;;;;;5063343;28;20504;-53
2023/02/07 07:50:16;;;;;;;28.30;14.75;;;-3.00;99.90;;;;;;5066579;28;20040;-59
2023/02/07 07:52:41;;;;;;;29.60;14.95;;;-2.90;99.90;;;;;;5064332;28;20037;-51
2023/02/07 07:55:08;;;;;;;26.92;14.15;;;-2.80;99.90;;;;;;5064253;28;20041;-55
2023/02/07 07:57:33;;;;;;;27.05;13.85;;;-2.90;99.90;;;;;;5060985;28;20186;-53
2023/02/07 07:59:59;;;;;;;23.00;12.55;;;-2.80;99.90;;;;;;5063796;28;20105;-60
2023/02/07 08:02:25;;;;;;;23.83;12.82;;;-2.70;99.90;;;;;;5060643;28;20041;-54
2023/02/07 08:04:50;;;;;;;31.40;14.48;;;-2.70;99.90;;;;;;5066170;28;20139;-57
2023/02/07 08:07:16;;;;;;;28.13;14.48;;;-2.60;99.90;;;;;;5061227;28;20036;-50
2023/02/07 08:09:42;;;;;;;28.65;16.13;;;-2.40;99.90;;;;;;5064021;28;20037;-54
2023/02/07 08:12:08;;;;;;;32.95;15.60;;;-2.40;99.90;;;;;;5059229;28;20072;-55
2023/02/07 08:14:34;;;;;;;29.42;16.95;;;-2.40;99.90;;;;;;5065870;28;20106;-52
2023/02/07 08:16:59;;;;;;;28.30;16.10;;;-2.40;99.90;;;;;;5060797;28;20612;-55
2023/02/07 08:19:25;;;;;;;30.63;14.43;;;-2.40;99.90;;;;;;5061955;28;20531;-54
2023/02/07 08:21:51;;;;;;;24.52;13.52;;;-2.40;99.90;;;;;;5059889;28;20040;-55
2023/02/07 08:24:16;;;;;;;25.58;13.93;;;-2.30;99.90;;;;;;5065467;28;20028;-55
2023/02/07 08:26:42;;;;;;;23.63;13.35;;;-2.30;99.90;;;;;;5062611;28;20040;-54
2023/02/07 08:29:08;;;;;;;23.92;13.55;;;-2.20;99.90;;;;;;5063701;28;20044;-54
2023/02/07 08:31:33;;;;;;;23.63;12.68;;;-2.20;99.90;;;;;;5057113;28;20132;-58
2023/02/07 08:33:59;;;;;;;23.10;13.15;;;-2.20;99.90;;;;;;5061406;28;20037;-57
2023/02/07 08:36:25;;;;;;;23.75;12.70;;;-2.20;99.90;;;;;;5060092;28;20060;-56
2023/02/07 08:38:51;;;;;;;26.23;13.63;;;-2.10;99.90;;;;;;5063442;28;20433;-55
2023/02/07 08:41:17;;;;;;;24.52;14.10;;;-2.00;99.90;;;;;;5064300;28;20472;-57
2023/02/07 08:43:42;;;;;;;24.05;14.32;;;-1.90;99.90;;;;;;5065148;28;20075;-57
2023/02/07 08:46:08;;;;;;;26.17;14.93;;;-1.80;99.90;;;;;;5063516;28;20078;-56
2023/02/07 08:48:34;;;;;;;27.17;15.70;;;-1.80;99.90;;;;;;5064042;28;20044;-54
2023/02/07 08:51:05;;;;;;;28.15;15.25;;;-1.70;99.90;;;;;;5065391;28;20064;-58
2023/02/07 08:53:30;;;;;;;27.40;14.95;;;-1.60;99.90;;;;;;5062150;28;20115;-55
2023/02/07 08:55:56;;;;;;;32.83;16.45;;;-1.50;99.90;;;;;;5064475;28;20538;-53
2023/02/07 08:58:22;;;;;;;25.67;13.73;;;-1.40;99.90;;;;;;5058366;28;20091;-53
2023/02/07 09:00:47;;;;;;;25.48;13.70;;;-1.30;99.90;;;;;;5063051;28;20036;-55
2023/02/07 09:03:14;;;;;;;26.65;14.13;;;-1.20;99.90;;;;;;5061834;28;20064;-52
2023/02/07 09:05:39;;;;;;;24.77;12.80;;;-1.10;99.90;;;;;;5061347;28;20079;-57
2023/02/07 09:08:05;;;;;;;19.98;11.45;;;-1.00;99.90;;;;;;5065005;28;20476;-52
2023/02/07 09:10:31;;;;;;;17.08;9.88;;;-1.00;99.90;;;;;;5064852;28;20033;-55
2023/02/07 09:12:56;;;;;;;17.52;10.50;;;-0.90;99.90;;;;;;5062739;28;20116;-53
2023/02/07 09:15:22;;;;;;;17.65;10.63;;;-0.70;99.90;;;;;;5063748;28;20071;-56
2023/02/07 09:17:48;;;;;;;17.88;9.52;;;-0.60;99.90;;;;;;5063719;28;20055;-54
2023/02/07 09:20:13;;;;;;;14.52;8.35;;;-0.50;99.90;;;;;;5065693;28;20039;-54
2023/02/07 09:25:23;;;;;;;11.27;7.13;;;-0.20;99.90;;;;;;5062736;28;20144;-53
2023/02/07 09:27:49;;;;;;;12.23;7.85;;;-0.10;99.90;;;;;;5061268;28;20035;-54
2023/02/07 09:30:15;;;;;;;11.82;7.32;;;0.00;99.90;;;;;;5063153;28;20500;-57
2023/02/07 09:32:41;;;;;;;14.70;7.50;;;0.10;99.90;;;;;;5063994;28;20111;-54
2023/02/07 09:35:07;;;;;;;11.98;7.70;;;0.20;99.90;;;;;;5062973;28;20146;-57
2023/02/07 09:37:34;;;;;;;12.82;7.45;;;0.40;99.90;;;;;;5058747;28;20139;-56
2023/02/07 09:39:59;;;;;;;9.77;6.10;;;0.50;99.90;;;;;;5058301;28;20033;-57
2023/02/07 09:42:35;;;;;;;9.90;5.50;;;0.60;99.90;;;;;;5061365;28;21052;-53
2023/02/07 09:45:11;;;;;;;9.25;5.03;;;0.70;99.90;;;;;;5064548;28;20087;-56
2023/02/07 09:47:40;;;;;;;11.30;5.80;;;0.80;99.90;;;;;;5060338;28;20046;-57
2023/02/07 09:50:29;;;;;;;9.50;5.30;;;0.90;99.90;;;;;;5064057;28;20044;-52
2023/02/07 09:53:12;;;;;;;8.00;4.82;;;0.90;99.90;;;;;;5060571;28;20436;-55
2023/02/07 09:55:44;;;;;;;8.95;5.53;;;0.90;99.90;;;;;;5061668;28;20040;-58
2023/02/07 09:58:38;;;;;;;10.95;5.38;;;1.00;99.90;;;;;;5062883;28;20039;-57
2023/02/07 10:01:13;;;;;;;9.40;4.78;;;1.20;99.90;;;;;;5056220;28;20119;-57
2023/02/07 10:03:56;;;;;;;7.65;4.40;;;1.30;99.90;;;;;;5060443;28;20101;-54
2023/02/07 10:06:26;;;;;;;8.32;4.95;;;1.40;99.90;;;;;;5053323;28;20052;-57
2023/02/07 10:08:56;;;;;;;6.63;3.45;;;1.50;99.90;;;;;;5058349;28;20044;-56
2023/02/07 10:11:48;;;;;;;4.03;2.80;;;1.50;99.90;;;;;;5056999;28;20073;-54
2023/02/07 10:14:19;;;;;;;6.40;3.65;;;1.50;99.90;;;;;;5057714;28;20043;-52
2023/02/07 10:17:03;;;;;;;6.93;3.72;;;1.50;99.90;;;;;;5058519;28;20048;-58
2023/02/07 10:19:44;;;;;;;12.40;4.15;;;1.60;99.90;;;;;;5059774;28;20482;-56
2023/02/07 10:22:24;;;;;;;7.25;4.25;;;1.60;99.90;;;;;;5060275;28;20120;-54
2023/02/07 10:25:06;;;;;;;10.82;4.32;;;1.80;99.90;;;;;;5061269;28;20052;-58
2023/02/07 10:27:41;;;;;;;10.00;3.72;;;1.90;99.90;;;;;;5059632;28;20037;-56
2023/02/07 10:30:25;;;;;;;8.97;3.57;;;2.10;99.90;;;;;;5062600;28;20063;-56
2023/02/07 10:32:52;;;;;;;8.95;3.45;;;2.20;99.90;;;;;;5059492;28;20044;-55
2023/02/07 10:35:29;;;;;;;4.85;2.90;;;2.20;99.90;;;;;;5061238;28;20037;-57
2023/02/07 10:37:59;;;;;;;4.10;2.58;;;2.40;99.90;;;;;;5052653;28;20045;-55
2023/02/07 10:40:51;;;;;;;4.18;2.35;;;2.30;98.60;;;;;;5055565;28;20040;-60
2023/02/07 10:43:31;;;;;;;3.65;2.20;;;2.30;95.00;;;;;;5053430;28;20419;-57
2023/02/07 10:46:07;;;;;;;4.10;2.33;;;2.30;93.20;;;;;;5060859;28;20084;-54
2023/02/07 10:48:34;;;;;;;4.10;2.53;;;2.30;93.50;;;;;;5060029;28;20040;-58
2023/02/07 10:51:04;;;;;;;3.88;2.00;;;2.50;96.50;;;;;;5059780;28;20119;-56
2023/02/07 10:54:09;;;;;;;7.07;2.35;;;2.50;91.70;;;;;;5058141;28;20044;-60
2023/02/07 10:56:42;;;;;;;3.53;2.03;;;2.60;92.00;;;;;;5048749;28;20059;-56
2023/02/07 10:59:29;;;;;;;5.32;2.30;;;2.70;89.40;;;;;;5061171;28;20043;-54
2023/02/07 11:01:55;;;;;;;3.30;2.13;;;2.80;90.50;;;;;;5058599;28;20408;-56
2023/02/07 11:04:23;;;;;;;6.93;2.83;;;3.00;90.00;;;;;;5057675;28;20044;-60
2023/02/07 11:06:59;;;;;;;4.70;3.00;;;3.10;93.80;;;;;;5058457;28;20085;-58
2023/02/07 11:09:25;;;;;;;2.63;2.00;;;3.00;88.40;;;;;;5059104;28;20102;-58
2023/02/07 11:11:53;;;;;;;3.50;2.08;;;3.20;87.40;;;;;;5060443;28;20710;-55
2023/02/07 11:14:27;;;;;;;4.07;2.42;;;3.30;85.30;;;;;;5056497;28;20043;-57
2023/02/07 11:16:55;;;;;;;4.43;2.50;;;3.20;82.30;;;;;;5055049;28;20056;-60
2023/02/07 11:19:29;;;;;;;3.33;2.15;;;3.30;84.70;;;;;;5037358;28;20722;-58
2023/02/07 11:22:17;;;;;;;8.68;2.28;;;3.40;90.50;;;;;;5056038;28;20487;-55
2023/02/07 11:24:43;;;;;;;3.95;2.00;;;3.50;89.90;;;;;;5059969;28;20933;-58
2023/02/07 11:27:11;;;;;;;4.72;2.28;;;3.50;87.50;;;;;;5056899;28;20105;-58
2023/02/07 11:30:02;;;;;;;4.00;2.05;;;3.50;75.70;;;;;;5056464;28;20590;-55
2023/02/07 11:32:28;;;;;;;5.20;2.10;;;3.50;80.00;;;;;;5055354;28;20043;-55
2023/02/07 11:34:57;;;;;;;3.38;1.90;;;3.60;80.90;;;;;;5051551;28;20045;-54
2023/02/07 11:37:27;;;;;;;2.80;2.10;;;3.60;76.60;;;;;;5055193;28;20044;-56
2023/02/07 11:39:56;;;;;;;4.22;2.17;;;3.70;81.90;;;;;;5061656;28;20037;-67
2023/02/07 11:42:30;;;;;;;4.03;2.20;;;3.70;79.10;;;;;;5059954;28;20316;-59
2023/02/07 11:45:01;;;;;;;3.78;2.10;;;3.60;73.80;;;;;;5060898;28;20036;-54
2023/02/07 11:47:28;;;;;;;3.20;2.33;;;3.70;77.90;;;;;;5054510;28;20040;-59
2023/02/07 11:49:59;;;;;;;10.93;3.47;;;3.70;76.60;;;;;;5061659;28;20033;-56
2023/02/07 11:52:26;;;;;;;3.53;2.30;;;3.80;77.10;;;;;;5060231;28;20040;-54
2023/02/07 11:54:57;;;;;;;6.55;3.67;;;3.80;80.00;;;;;;5062222;28;20039;-57
2023/02/07 11:57:25;;;;;;;5.60;2.80;;;3.90;83.80;;;;;;5057831;28;20075;-55
2023/02/07 12:00:05;;;;;;;5.40;3.55;;;4.00;82.40;;;;;;5059356;28;20588;-60
2023/02/07 12:02:32;;;;;;;8.02;4.43;;;4.10;79.80;;;;;;5052476;28;20206;-59
2023/02/07 12:05:22;;;;;;;7.88;3.25;;;4.10;78.50;;;;;;5058780;28;20128;-55
2023/02/07 12:08:08;;;;;;;5.75;2.88;;;4.20;79.20;;;;;;5051308;28;20048;-56
2023/02/07 12:10:38;;;;;;;6.38;2.50;;;4.20;83.60;;;;;;5055627;28;20693;-55
2023/02/07 12:13:03;;;;;;;5.65;2.55;;;4.20;84.80;;;;;;5059121;28;20522;-56
2023/02/07 12:15:41;;;;;;;5.75;2.63;;;4.20;79.40;;;;;;5062145;28;20033;-56
2023/02/07 12:18:13;;;;;;;4.13;2.65;;;4.20;78.50;;;;;;5059818;28;20566;-58
2023/02/07 12:20:55;;;;;;;5.47;2.63;;;4.30;86.10;;;;;;5060999;28;20055;-53
2023/02/07 12:23:44;;;;;;;9.15;2.72;;;4.30;81.60;;;;;;5064203;28;21505;-54
2023/02/07 12:26:25;;;;;;;4.30;2.55;;;4.30;77.80;;;;;;5063710;28;20087;-56
2023/02/07 12:29:26;;;;;;;4.47;2.42;;;4.40;89.80;;;;;;5061765;28;20094;-56
2023/02/07 12:32:16;;;;;;;3.78;2.50;;;4.40;79.40;;;;;;5061530;28;20049;-54
2023/02/07 12:35:03;;;;;;;3.78;2.28;;;4.40;85.50;;;;;;5062842;28;20037;-58
2023/02/07 12:37:42;;;;;;;3.22;2.45;;;4.60;84.30;;;;;;5059143;28;20024;-53
2023/02/07 12:40:18;;;;;;;4.20;2.72;;;4.60;79.60;;;;;;5062255;28;21100;-56
2023/02/07 12:43:07;;;;;;;4.20;2.33;;;4.70;82.00;;;;;;5063161;28;20025;-60
2023/02/07 12:45:45;;;;;;;3.80;2.05;;;4.60;74.70;;;;;;5046898;28;20131;-58
2023/02/07 12:48:29;;;;;;;2.58;1.70;;;4.50;78.50;;;;;;5061910;28;20664;-59
2023/02/07 12:51:18;;;;;;;3.78;1.80;;;4.60;87.70;;;;;;5063442;28;20041;-56
2023/02/07 12:53:52;;;;;;;4.05;1.80;;;4.60;89.00;;;;;;5051376;28;20147;-55
2023/02/07 12:56:20;;;;;;;5.93;1.90;;;4.60;71.10;;;;;;5061502;28;20052;-59
2023/02/07 12:59:12;;;;;;;3.97;1.80;;;4.70;84.00;;;;;;5059979;28;20044;-57
2023/02/07 13:01:48;;;;;;;2.53;1.50;;;4.70;78.60;;;;;;5061183;28;20051;-54
2023/02/07 13:04:42;;;;;;;2.50;1.60;;;4.70;65.70;;;;;;5060328;28;20127;-56
2023/02/07 13:07:37;;;;;;;6.85;1.48;;;4.70;68.00;;;;;;5031918;28;20067;-53
2023/02/07 13:10:11;;;;;;;4.47;1.38;;;4.80;73.10;;;;;;5059044;28;20401;-57